sensor_id;sensor_type;location;lat;lon;timestamp;P1;durP1;ratioP1;P2;durP2;ratioP2
25752;SDS011;13600;50.816;4.416;2023-07-13T00:02:22;7.32;;;1.98;;
25752;SDS011;13600;50.816;4.416;2023-07-13T00:04:49;11.95;;;1.75;;
25752;SDS011;13600;50.816;4.416;2023-07-13T00:07:15;11.35;;;2.28;;
25752;SDS011;13600;50.816;4.416;2023-07-13T00:09:45;13.13;;;2.10;;
25752;SDS011;13600;50.816;4.416;2023-07-13T00:12:28;9.15;;;1.80;;
25752;SDS011;13600;50.816;4.416;2023-07-13T00:14:56;14.70;;;2.20;;
25752;SDS011;13600;50.816;4.416;2023-07-13T00:17:23;14.90;;;2.50;;
25752;SDS011;13600;50.816;4.416;2023-07-13T00:19:49;7.25;;;1.73;;
25752;SDS011;13600;50.816;4.416;2023-07-13T00:22:15;14.90;;;2.17;;
25752;SDS011;13600;50.816;4.416;2023-07-13T00:24:43;15.50;;;2.35;;
25752;SDS011;13600;50.816;4.416;2023-07-13T00:27:09;11.13;;;2.22;;
25752;SDS011;13600;50.816;4.416;2023-07-13T00:29:35;12.80;;;2.10;;
25752;SDS011;13600;50.816;4.416;2023-07-13T00:32:02;11.57;;;1.80;;
25752;SDS011;13600;50.816;4.416;2023-07-13T00:34:31;10.65;;;2.03;;
25752;SDS011;13600;50.816;4.416;2023-07-13T00:36:57;13.30;;;2.45;;
25752;SDS011;13600;50.816;4.416;2023-07-13T00:39:23;10.82;;;1.92;;
25752;SDS011;13600;50.816;4.416;2023-07-13T00:41:49;9.13;;;2.28;;
25752;SDS011;13600;50.816;4.416;2023-07-13T00:44:15;8.23;;;2.00;;
25752;SDS011;13600;50.816;4.416;2023-07-13T00:46:42;11.15;;;2.25;;
25752;SDS011;13600;50.816;4.416;2023-07-13T00:49:10;12.05;;;1.95;;
25752;SDS011;13600;50.816;4.416;2023-07-13T00:51:40;16.05;;;2.28;;
25752;SDS011;13600;50.816;4.416;2023-07-13T00:54:59;19.25;;;2.50;;
25752;SDS011;13600;50.816;4.416;2023-07-13T00:57:09;12.07;;;2.60;;
25752;SDS011;13600;50.816;4.416;2023-07-13T00:59:39;12.75;;;2.00;;
25752;SDS011;13600;50.816;4.416;2023-07-13T01:02:08;12.88;;;1.95;;
25752;SDS011;13600;50.816;4.416;2023-07-13T01:04:34;15.15;;;2.50;;
25752;SDS011;13600;50.816;4.416;2023-07-13T01:06:59;11.93;;;1.88;;
25752;SDS011;13600;50.816;4.416;2023-07-13T01:09:26;18.10;;;2.80;;
25752;SDS011;13600;50.816;4.416;2023-07-13T01:11:52;14.55;;;2.30;;
25752;SDS011;13600;50.816;4.416;2023-07-13T01:14:18;10.23;;;2.25;;
25752;SDS011;13600;50.816;4.416;2023-07-13T01:16:44;14.80;;;2.15;;
25752;SDS011;13600;50.816;4.416;2023-07-13T01:22:01;11.68;;;2.40;;
25752;SDS011;13600;50.816;4.416;2023-07-13T01:24:34;12.23;;;1.98;;
25752;SDS011;13600;50.816;4.416;2023-07-13T01:27:01;10.93;;;2.28;;
25752;SDS011;13600;50.816;4.416;2023-07-13T01:29:27;10.65;;;2.30;;
25752;SDS011;13600;50.816;4.416;2023-07-13T01:31:53;12.02;;;2.42;;
25752;SDS011;13600;50.816;4.416;2023-07-13T01:34:19;11.98;;;2.00;;
25752;SDS011;13600;50.816;4.416;2023-07-13T01:36:44;10.05;;;2.30;;
25752;SDS011;13600;50.816;4.416;2023-07-13T01:39:10;15.98;;;2.17;;
25752;SDS011;13600;50.816;4.416;2023-07-13T01:41:37;11.65;;;2.05;;
25752;SDS011;13600;50.816;4.416;2023-07-13T01:44:02;14.75;;;2.45;;
25752;SDS011;13600;50.816;4.416;2023-07-13T01:46:28;12.27;;;2.25;;
25752;SDS011;13600;50.816;4.416;2023-07-13T01:48:54;12.32;;;2.42;;
25752;SDS011;13600;50.816;4.416;2023-07-13T01:51:20;13.75;;;2.65;;
25752;SDS011;13600;50.816;4.416;2023-07-13T01:53:46;12.95;;;2.35;;
25752;SDS011;13600;50.816;4.416;2023-07-13T01:56:11;13.40;;;2.70;;
25752;SDS011;13600;50.816;4.416;2023-07-13T01:58:37;13.50;;;2.63;;
25752;SDS011;13600;50.816;4.416;2023-07-13T02:01:03;15.43;;;2.58;;
25752;SDS011;13600;50.816;4.416;2023-07-13T02:03:28;19.80;;;3.45;;
25752;SDS011;13600;50.816;4.416;2023-07-13T02:05:54;12.05;;;2.80;;
25752;SDS011;13600;50.816;4.416;2023-07-13T02:08:19;17.20;;;2.80;;
25752;SDS011;13600;50.816;4.416;2023-07-13T02:10:45;15.00;;;2.67;;
25752;SDS011;13600;50.816;4.416;2023-07-13T02:13:11;11.95;;;2.50;;
25752;SDS011;13600;50.816;4.416;2023-07-13T02:15:40;13.70;;;3.00;;
25752;SDS011;13600;50.816;4.416;2023-07-13T02:18:08;11.35;;;2.60;;
25752;SDS011;13600;50.816;4.416;2023-07-13T02:20:34;12.18;;;2.72;;
25752;SDS011;13600;50.816;4.416;2023-07-13T02:22:59;14.00;;;2.63;;
25752;SDS011;13600;50.816;4.416;2023-07-13T02:25:25;17.85;;;2.63;;
25752;SDS011;13600;50.816;4.416;2023-07-13T02:27:52;15.88;;;2.92;;
25752;SDS011;13600;50.816;4.416;2023-07-13T02:30:18;11.93;;;2.80;;
25752;SDS011;13600;50.816;4.416;2023-07-13T02:32:44;13.75;;;2.70;;
25752;SDS011;13600;50.816;4.416;2023-07-13T02:35:09;16.83;;;2.80;;
25752;SDS011;13600;50.816;4.416;2023-07-13T02:37:35;13.05;;;2.53;;
25752;SDS011;13600;50.816;4.416;2023-07-13T02:40:01;7.30;;;2.63;;
25752;SDS011;13600;50.816;4.416;2023-07-13T02:42:33;17.52;;;3.10;;
25752;SDS011;13600;50.816;4.416;2023-07-13T02:44:59;14.73;;;2.80;;
25752;SDS011;13600;50.816;4.416;2023-07-13T02:47:24;11.38;;;2.72;;
25752;SDS011;13600;50.816;4.416;2023-07-13T02:49:51;14.05;;;2.97;;
25752;SDS011;13600;50.816;4.416;2023-07-13T02:52:17;16.48;;;3.00;;
25752;SDS011;13600;50.816;4.416;2023-07-13T02:54:43;12.82;;;2.85;;
25752;SDS011;13600;50.816;4.416;2023-07-13T02:57:09;18.80;;;2.78;;
25752;SDS011;13600;50.816;4.416;2023-07-13T02:59:34;17.45;;;3.00;;
25752;SDS011;13600;50.816;4.416;2023-07-13T03:02:01;14.02;;;2.60;;
25752;SDS011;13600;50.816;4.416;2023-07-13T03:04:27;17.42;;;2.83;;
25752;SDS011;13600;50.816;4.416;2023-07-13T03:06:53;13.77;;;2.85;;
25752;SDS011;13600;50.816;4.416;2023-07-13T03:09:22;11.90;;;2.60;;
25752;SDS011;13600;50.816;4.416;2023-07-13T03:11:48;11.55;;;3.13;;
25752;SDS011;13600;50.816;4.416;2023-07-13T03:14:14;16.70;;;3.08;;
25752;SDS011;13600;50.816;4.416;2023-07-13T03:16:39;12.95;;;2.60;;
25752;SDS011;13600;50.816;4.416;2023-07-13T03:19:05;12.20;;;2.78;;
25752;SDS011;13600;50.816;4.416;2023-07-13T03:21:31;13.93;;;3.00;;
25752;SDS011;13600;50.816;4.416;2023-07-13T03:23:56;14.07;;;2.90;;
25752;SDS011;13600;50.816;4.416;2023-07-13T03:26:22;20.42;;;3.42;;
25752;SDS011;13600;50.816;4.416;2023-07-13T03:28:48;20.65;;;2.95;;
25752;SDS011;13600;50.816;4.416;2023-07-13T03:31:25;20.88;;;3.03;;
25752;SDS011;13600;50.816;4.416;2023-07-13T03:33:53;18.63;;;3.00;;
25752;SDS011;13600;50.816;4.416;2023-07-13T03:36:21;13.15;;;3.10;;
25752;SDS011;13600;50.816;4.416;2023-07-13T03:38:50;14.40;;;3.45;;
25752;SDS011;13600;50.816;4.416;2023-07-13T03:41:18;16.70;;;3.20;;
25752;SDS011;13600;50.816;4.416;2023-07-13T03:43:44;10.88;;;2.92;;
25752;SDS011;13600;50.816;4.416;2023-07-13T03:46:10;13.27;;;2.85;;
25752;SDS011;13600;50.816;4.416;2023-07-13T03:48:36;18.02;;;3.28;;
25752;SDS011;13600;50.816;4.416;2023-07-13T03:51:02;16.38;;;2.75;;
25752;SDS011;13600;50.816;4.416;2023-07-13T03:53:28;15.88;;;2.97;;
25752;SDS011;13600;50.816;4.416;2023-07-13T03:55:53;16.67;;;3.03;;
25752;SDS011;13600;50.816;4.416;2023-07-13T04:00:53;20.95;;;3.50;;
25752;SDS011;13600;50.816;4.416;2023-07-13T04:03:19;11.18;;;3.17;;
25752;SDS011;13600;50.816;4.416;2023-07-13T04:05:45;18.02;;;3.55;;
25752;SDS011;13600;50.816;4.416;2023-07-13T04:08:11;17.17;;;3.22;;
25752;SDS011;13600;50.816;4.416;2023-07-13T04:10:37;17.23;;;3.47;;
25752;SDS011;13600;50.816;4.416;2023-07-13T04:13:03;13.73;;;3.10;;
25752;SDS011;13600;50.816;4.416;2023-07-13T04:15:30;13.32;;;3.25;;
25752;SDS011;13600;50.816;4.416;2023-07-13T04:17:56;17.58;;;2.90;;
25752;SDS011;13600;50.816;4.416;2023-07-13T04:20:22;15.82;;;3.55;;
25752;SDS011;13600;50.816;4.416;2023-07-13T04:22:49;15.15;;;3.25;;
25752;SDS011;13600;50.816;4.416;2023-07-13T04:25:15;19.88;;;3.42;;
25752;SDS011;13600;50.816;4.416;2023-07-13T04:27:41;18.02;;;3.58;;
25752;SDS011;13600;50.816;4.416;2023-07-13T04:30:06;18.38;;;3.42;;
25752;SDS011;13600;50.816;4.416;2023-07-13T04:32:33;13.75;;;2.70;;
25752;SDS011;13600;50.816;4.416;2023-07-13T04:34:58;12.00;;;2.97;;
25752;SDS011;13600;50.816;4.416;2023-07-13T04:37:25;18.42;;;2.92;;
25752;SDS011;13600;50.816;4.416;2023-07-13T04:39:51;13.57;;;3.03;;
25752;SDS011;13600;50.816;4.416;2023-07-13T04:42:17;17.65;;;3.50;;
25752;SDS011;13600;50.816;4.416;2023-07-13T04:44:47;14.90;;;3.08;;
25752;SDS011;13600;50.816;4.416;2023-07-13T04:47:14;20.48;;;3.60;;
25752;SDS011;13600;50.816;4.416;2023-07-13T04:49:39;16.13;;;3.28;;
25752;SDS011;13600;50.816;4.416;2023-07-13T04:52:05;19.08;;;3.55;;
25752;SDS011;13600;50.816;4.416;2023-07-13T04:54:32;17.98;;;3.13;;
25752;SDS011;13600;50.816;4.416;2023-07-13T04:56:58;24.77;;;3.53;;
25752;SDS011;13600;50.816;4.416;2023-07-13T04:59:24;19.33;;;4.15;;
25752;SDS011;13600;50.816;4.416;2023-07-13T05:01:50;14.80;;;3.50;;
25752;SDS011;13600;50.816;4.416;2023-07-13T05:04:16;17.60;;;3.65;;
25752;SDS011;13600;50.816;4.416;2023-07-13T05:06:42;15.13;;;3.10;;
25752;SDS011;13600;50.816;4.416;2023-07-13T05:09:07;20.55;;;4.03;;
25752;SDS011;13600;50.816;4.416;2023-07-13T05:11:34;13.43;;;2.83;;
25752;SDS011;13600;50.816;4.416;2023-07-13T05:13:59;20.10;;;3.15;;
25752;SDS011;13600;50.816;4.416;2023-07-13T05:16:26;20.80;;;3.80;;
25752;SDS011;13600;50.816;4.416;2023-07-13T05:18:53;21.42;;;3.40;;
25752;SDS011;13600;50.816;4.416;2023-07-13T05:21:19;21.55;;;3.40;;
25752;SDS011;13600;50.816;4.416;2023-07-13T05:23:44;20.27;;;3.13;;
25752;SDS011;13600;50.816;4.416;2023-07-13T05:26:11;17.15;;;3.28;;
25752;SDS011;13600;50.816;4.416;2023-07-13T05:28:37;22.20;;;3.95;;
25752;SDS011;13600;50.816;4.416;2023-07-13T05:31:03;17.25;;;3.15;;
25752;SDS011;13600;50.816;4.416;2023-07-13T05:33:29;20.60;;;3.92;;
25752;SDS011;13600;50.816;4.416;2023-07-13T05:35:55;21.23;;;3.38;;
25752;SDS011;13600;50.816;4.416;2023-07-13T05:38:21;20.88;;;3.45;;
25752;SDS011;13600;50.816;4.416;2023-07-13T05:40:49;20.27;;;3.78;;
25752;SDS011;13600;50.816;4.416;2023-07-13T05:43:15;21.83;;;3.63;;
25752;SDS011;13600;50.816;4.416;2023-07-13T05:45:40;17.83;;;3.25;;
25752;SDS011;13600;50.816;4.416;2023-07-13T05:48:06;17.60;;;3.10;;
25752;SDS011;13600;50.816;4.416;2023-07-13T05:50:32;21.80;;;3.60;;
25752;SDS011;13600;50.816;4.416;2023-07-13T05:52:58;18.30;;;4.25;;
25752;SDS011;13600;50.816;4.416;2023-07-13T05:55:24;19.65;;;3.50;;
25752;SDS011;13600;50.816;4.416;2023-07-13T05:57:49;19.67;;;3.35;;
25752;SDS011;13600;50.816;4.416;2023-07-13T06:00:15;18.88;;;3.75;;
25752;SDS011;13600;50.816;4.416;2023-07-13T06:02:41;19.05;;;3.95;;
25752;SDS011;13600;50.816;4.416;2023-07-13T06:05:07;20.80;;;4.07;;
25752;SDS011;13600;50.816;4.416;2023-07-13T06:07:33;14.35;;;3.13;;
25752;SDS011;13600;50.816;4.416;2023-07-13T06:09:59;16.52;;;3.60;;
25752;SDS011;13600;50.816;4.416;2023-07-13T06:12:25;19.70;;;3.67;;
25752;SDS011;13600;50.816;4.416;2023-07-13T06:14:51;15.65;;;3.08;;
25752;SDS011;13600;50.816;4.416;2023-07-13T06:17:17;20.13;;;3.40;;
25752;SDS011;13600;50.816;4.416;2023-07-13T06:19:43;23.42;;;3.65;;
25752;SDS011;13600;50.816;4.416;2023-07-13T06:22:09;17.92;;;3.83;;
25752;SDS011;13600;50.816;4.416;2023-07-13T06:24:35;20.35;;;3.38;;
25752;SDS011;13600;50.816;4.416;2023-07-13T06:27:00;25.25;;;3.83;;
25752;SDS011;13600;50.816;4.416;2023-07-13T06:29:26;19.98;;;4.28;;
25752;SDS011;13600;50.816;4.416;2023-07-13T06:31:51;18.35;;;3.35;;
25752;SDS011;13600;50.816;4.416;2023-07-13T06:34:17;14.13;;;2.70;;
25752;SDS011;13600;50.816;4.416;2023-07-13T06:36:43;21.67;;;3.53;;
25752;SDS011;13600;50.816;4.416;2023-07-13T06:39:09;19.80;;;3.30;;
25752;SDS011;13600;50.816;4.416;2023-07-13T06:41:35;15.10;;;3.17;;
25752;SDS011;13600;50.816;4.416;2023-07-13T06:44:01;14.82;;;3.28;;
25752;SDS011;13600;50.816;4.416;2023-07-13T06:46:28;18.75;;;3.95;;
25752;SDS011;13600;50.816;4.416;2023-07-13T06:48:54;19.40;;;3.75;;
25752;SDS011;13600;50.816;4.416;2023-07-13T06:51:20;19.02;;;3.67;;
25752;SDS011;13600;50.816;4.416;2023-07-13T06:53:46;18.58;;;3.58;;
25752;SDS011;13600;50.816;4.416;2023-07-13T06:56:11;16.15;;;3.30;;
25752;SDS011;13600;50.816;4.416;2023-07-13T06:58:37;11.48;;;3.00;;
25752;SDS011;13600;50.816;4.416;2023-07-13T07:01:03;13.23;;;3.05;;
25752;SDS011;13600;50.816;4.416;2023-07-13T07:03:30;17.48;;;3.63;;
25752;SDS011;13600;50.816;4.416;2023-07-13T07:06:06;14.55;;;3.50;;
25752;SDS011;13600;50.816;4.416;2023-07-13T07:08:40;18.35;;;3.88;;
25752;SDS011;13600;50.816;4.416;2023-07-13T07:11:05;16.92;;;3.08;;
25752;SDS011;13600;50.816;4.416;2023-07-13T07:13:33;18.38;;;3.67;;
25752;SDS011;13600;50.816;4.416;2023-07-13T07:15:59;20.45;;;3.53;;
25752;SDS011;13600;50.816;4.416;2023-07-13T07:18:25;13.30;;;3.22;;
25752;SDS011;13600;50.816;4.416;2023-07-13T07:20:51;14.70;;;3.67;;
25752;SDS011;13600;50.816;4.416;2023-07-13T07:23:17;19.40;;;3.45;;
25752;SDS011;13600;50.816;4.416;2023-07-13T07:25:44;12.27;;;3.20;;
25752;SDS011;13600;50.816;4.416;2023-07-13T07:28:10;12.35;;;3.03;;
25752;SDS011;13600;50.816;4.416;2023-07-13T07:30:36;15.50;;;3.00;;
25752;SDS011;13600;50.816;4.416;2023-07-13T07:33:03;17.20;;;3.38;;
25752;SDS011;13600;50.816;4.416;2023-07-13T07:35:28;16.38;;;2.83;;
25752;SDS011;13600;50.816;4.416;2023-07-13T07:37:55;13.52;;;2.97;;
25752;SDS011;13600;50.816;4.416;2023-07-13T07:40:20;13.43;;;3.03;;
25752;SDS011;13600;50.816;4.416;2023-07-13T07:42:46;14.75;;;2.78;;
25752;SDS011;13600;50.816;4.416;2023-07-13T07:45:12;13.90;;;3.08;;
25752;SDS011;13600;50.816;4.416;2023-07-13T07:47:38;15.15;;;3.30;;
25752;SDS011;13600;50.816;4.416;2023-07-13T07:50:04;14.07;;;3.00;;
25752;SDS011;13600;50.816;4.416;2023-07-13T07:52:29;15.27;;;3.03;;
25752;SDS011;13600;50.816;4.416;2023-07-13T07:54:55;14.88;;;3.17;;
25752;SDS011;13600;50.816;4.416;2023-07-13T07:57:21;11.80;;;3.03;;
25752;SDS011;13600;50.816;4.416;2023-07-13T07:59:46;16.38;;;3.50;;
25752;SDS011;13600;50.816;4.416;2023-07-13T08:02:13;12.85;;;2.85;;
25752;SDS011;13600;50.816;4.416;2023-07-13T08:04:39;13.02;;;2.78;;
25752;SDS011;13600;50.816;4.416;2023-07-13T08:07:04;12.55;;;2.55;;
25752;SDS011;13600;50.816;4.416;2023-07-13T08:09:30;11.60;;;2.65;;
25752;SDS011;13600;50.816;4.416;2023-07-13T08:11:57;12.38;;;2.75;;
25752;SDS011;13600;50.816;4.416;2023-07-13T08:14:22;9.57;;;2.58;;
25752;SDS011;13600;50.816;4.416;2023-07-13T08:16:48;13.80;;;2.85;;
25752;SDS011;13600;50.816;4.416;2023-07-13T08:19:14;15.73;;;2.50;;
25752;SDS011;13600;50.816;4.416;2023-07-13T08:21:41;10.88;;;2.60;;
25752;SDS011;13600;50.816;4.416;2023-07-13T08:24:08;12.05;;;2.38;;
25752;SDS011;13600;50.816;4.416;2023-07-13T08:26:34;10.35;;;2.72;;
25752;SDS011;13600;50.816;4.416;2023-07-13T08:28:59;12.02;;;3.13;;
25752;SDS011;13600;50.816;4.416;2023-07-13T08:31:25;12.40;;;2.42;;
25752;SDS011;13600;50.816;4.416;2023-07-13T08:33:50;9.60;;;2.38;;
25752;SDS011;13600;50.816;4.416;2023-07-13T08:36:16;11.55;;;2.28;;
25752;SDS011;13600;50.816;4.416;2023-07-13T08:38:42;16.02;;;2.60;;
25752;SDS011;13600;50.816;4.416;2023-07-13T08:41:11;12.93;;;2.30;;
25752;SDS011;13600;50.816;4.416;2023-07-13T08:43:39;11.38;;;2.60;;
25752;SDS011;13600;50.816;4.416;2023-07-13T08:46:08;12.82;;;2.20;;
25752;SDS011;13600;50.816;4.416;2023-07-13T08:48:58;9.20;;;2.20;;
25752;SDS011;13600;50.816;4.416;2023-07-13T08:54:29;11.23;;;2.80;;
25752;SDS011;13600;50.816;4.416;2023-07-13T08:56:58;10.82;;;2.78;;
25752;SDS011;13600;50.816;4.416;2023-07-13T08:59:28;8.10;;;2.13;;
25752;SDS011;13600;50.816;4.416;2023-07-13T09:04:37;10.93;;;2.08;;
25752;SDS011;13600;50.816;4.416;2023-07-13T09:09:39;13.90;;;2.75;;
25752;SDS011;13600;50.816;4.416;2023-07-13T09:17:51;14.25;;;2.10;;
25752;SDS011;13600;50.816;4.416;2023-07-13T09:20:28;8.52;;;1.90;;
25752;SDS011;13600;50.816;4.416;2023-07-13T09:22:59;14.15;;;2.33;;
25752;SDS011;13600;50.816;4.416;2023-07-13T09:25:30;9.80;;;2.00;;
25752;SDS011;13600;50.816;4.416;2023-07-13T09:28:00;8.27;;;2.25;;
25752;SDS011;13600;50.816;4.416;2023-07-13T09:33:21;9.85;;;2.08;;
25752;SDS011;13600;50.816;4.416;2023-07-13T09:35:48;9.70;;;1.95;;
25752;SDS011;13600;50.816;4.416;2023-07-13T09:38:16;9.50;;;2.05;;
25752;SDS011;13600;50.816;4.416;2023-07-13T09:40:54;9.07;;;2.20;;
25752;SDS011;13600;50.816;4.416;2023-07-13T09:46:34;9.95;;;2.25;;
25752;SDS011;13600;50.816;4.416;2023-07-13T09:49:00;11.40;;;2.53;;
25752;SDS011;13600;50.816;4.416;2023-07-13T09:51:25;10.20;;;2.67;;
25752;SDS011;13600;50.816;4.416;2023-07-13T09:53:51;9.68;;;2.38;;
25752;SDS011;13600;50.816;4.416;2023-07-13T09:56:24;11.10;;;2.50;;
25752;SDS011;13600;50.816;4.416;2023-07-13T09:58:53;11.48;;;2.22;;
25752;SDS011;13600;50.816;4.416;2023-07-13T10:01:30;11.27;;;2.28;;
25752;SDS011;13600;50.816;4.416;2023-07-13T10:04:01;11.55;;;2.28;;
25752;SDS011;13600;50.816;4.416;2023-07-13T10:06:34;11.43;;;2.22;;
25752;SDS011;13600;50.816;4.416;2023-07-13T10:09:00;11.13;;;1.90;;
25752;SDS011;13600;50.816;4.416;2023-07-13T10:11:27;11.13;;;1.95;;
25752;SDS011;13600;50.816;4.416;2023-07-13T10:14:01;7.50;;;2.15;;
25752;SDS011;13600;50.816;4.416;2023-07-13T10:16:34;7.85;;;2.10;;
25752;SDS011;13600;50.816;4.416;2023-07-13T10:19:10;11.65;;;2.80;;
25752;SDS011;13600;50.816;4.416;2023-07-13T10:22:10;7.75;;;2.10;;
25752;SDS011;13600;50.816;4.416;2023-07-13T10:24:52;6.10;;;2.10;;
25752;SDS011;13600;50.816;4.416;2023-07-13T10:27:20;12.30;;;2.13;;
25752;SDS011;13600;50.816;4.416;2023-07-13T10:32:42;9.43;;;2.15;;
25752;SDS011;13600;50.816;4.416;2023-07-13T10:35:12;6.75;;;1.88;;
25752;SDS011;13600;50.816;4.416;2023-07-13T10:37:45;9.73;;;1.65;;
25752;SDS011;13600;50.816;4.416;2023-07-13T10:40:29;7.75;;;1.65;;
25752;SDS011;13600;50.816;4.416;2023-07-13T10:43:00;6.60;;;1.80;;
25752;SDS011;13600;50.816;4.416;2023-07-13T10:45:33;7.88;;;1.80;;
25752;SDS011;13600;50.816;4.416;2023-07-13T10:48:00;7.80;;;2.05;;
25752;SDS011;13600;50.816;4.416;2023-07-13T10:50:27;5.82;;;1.70;;
25752;SDS011;13600;50.816;4.416;2023-07-13T10:52:56;5.90;;;2.10;;
25752;SDS011;13600;50.816;4.416;2023-07-13T11:01:17;6.13;;;1.95;;
25752;SDS011;13600;50.816;4.416;2023-07-13T11:08:38;6.57;;;1.80;;
25752;SDS011;13600;50.816;4.416;2023-07-13T11:11:39;8.02;;;1.80;;
25752;SDS011;13600;50.816;4.416;2023-07-13T11:14:04;6.35;;;1.52;;
25752;SDS011;13600;50.816;4.416;2023-07-13T11:16:50;6.25;;;1.73;;
25752;SDS011;13600;50.816;4.416;2023-07-13T11:24:52;6.15;;;1.58;;
25752;SDS011;13600;50.816;4.416;2023-07-13T11:33:07;4.05;;;1.40;;
25752;SDS011;13600;50.816;4.416;2023-07-13T11:38:20;6.13;;;1.30;;
25752;SDS011;13600;50.816;4.416;2023-07-13T11:40:48;4.78;;;1.40;;
25752;SDS011;13600;50.816;4.416;2023-07-13T11:43:17;6.80;;;1.27;;
25752;SDS011;13600;50.816;4.416;2023-07-13T11:45:43;5.80;;;1.73;;
25752;SDS011;13600;50.816;4.416;2023-07-13T11:50:53;5.32;;;1.40;;
25752;SDS011;13600;50.816;4.416;2023-07-13T11:53:27;7.40;;;1.70;;
25752;SDS011;13600;50.816;4.416;2023-07-13T11:55:54;6.38;;;1.60;;
25752;SDS011;13600;50.816;4.416;2023-07-13T11:58:22;8.20;;;2.08;;
25752;SDS011;13600;50.816;4.416;2023-07-13T12:00:50;5.60;;;1.55;;
25752;SDS011;13600;50.816;4.416;2023-07-13T12:03:18;7.03;;;1.63;;
25752;SDS011;13600;50.816;4.416;2023-07-13T12:05:57;8.52;;;1.40;;
25752;SDS011;13600;50.816;4.416;2023-07-13T12:08:25;5.90;;;1.65;;
25752;SDS011;13600;50.816;4.416;2023-07-13T12:10:58;9.05;;;1.88;;
25752;SDS011;13600;50.816;4.416;2023-07-13T12:13:26;8.13;;;1.70;;
25752;SDS011;13600;50.816;4.416;2023-07-13T12:15:54;5.82;;;1.50;;
25752;SDS011;13600;50.816;4.416;2023-07-13T12:18:22;7.05;;;1.30;;
25752;SDS011;13600;50.816;4.416;2023-07-13T12:20:55;9.75;;;2.00;;
25752;SDS011;13600;50.816;4.416;2023-07-13T12:23:28;7.13;;;1.38;;
25752;SDS011;13600;50.816;4.416;2023-07-13T12:25:59;9.90;;;1.35;;
25752;SDS011;13600;50.816;4.416;2023-07-13T12:28:37;8.23;;;1.58;;
25752;SDS011;13600;50.816;4.416;2023-07-13T12:31:04;5.90;;;1.42;;
25752;SDS011;13600;50.816;4.416;2023-07-13T12:33:32;7.75;;;1.77;;
25752;SDS011;13600;50.816;4.416;2023-07-13T12:36:02;6.53;;;1.17;;
25752;SDS011;13600;50.816;4.416;2023-07-13T12:38:30;5.55;;;1.33;;
25752;SDS011;13600;50.816;4.416;2023-07-13T12:40:57;4.45;;;1.30;;
25752;SDS011;13600;50.816;4.416;2023-07-13T12:43:23;3.65;;;1.20;;
25752;SDS011;13600;50.816;4.416;2023-07-13T12:46:01;7.13;;;1.50;;
25752;SDS011;13600;50.816;4.416;2023-07-13T12:48:28;4.05;;;1.50;;
25752;SDS011;13600;50.816;4.416;2023-07-13T12:50:55;7.72;;;1.50;;
25752;SDS011;13600;50.816;4.416;2023-07-13T12:53:29;8.45;;;2.33;;
25752;SDS011;13600;50.816;4.416;2023-07-13T12:55:59;7.60;;;2.10;;
25752;SDS011;13600;50.816;4.416;2023-07-13T12:58:39;8.57;;;2.00;;
25752;SDS011;13600;50.816;4.416;2023-07-13T13:01:09;10.70;;;2.17;;
25752;SDS011;13600;50.816;4.416;2023-07-13T13:03:38;6.97;;;2.28;;
25752;SDS011;13600;50.816;4.416;2023-07-13T13:08:45;6.05;;;1.92;;
25752;SDS011;13600;50.816;4.416;2023-07-13T13:11:20;8.77;;;1.80;;
25752;SDS011;13600;50.816;4.416;2023-07-13T13:13:48;6.22;;;2.03;;
25752;SDS011;13600;50.816;4.416;2023-07-13T13:18:49;3.20;;;1.50;;
25752;SDS011;13600;50.816;4.416;2023-07-13T13:21:18;5.22;;;1.45;;
25752;SDS011;13600;50.816;4.416;2023-07-13T13:23:44;4.32;;;1.45;;
25752;SDS011;13600;50.816;4.416;2023-07-13T13:26:11;5.75;;;1.50;;
25752;SDS011;13600;50.816;4.416;2023-07-13T13:28:41;3.55;;;1.55;;
25752;SDS011;13600;50.816;4.416;2023-07-13T13:31:09;4.25;;;1.40;;
25752;SDS011;13600;50.816;4.416;2023-07-13T13:33:38;5.47;;;1.70;;
25752;SDS011;13600;50.816;4.416;2023-07-13T13:36:17;6.47;;;1.65;;
25752;SDS011;13600;50.816;4.416;2023-07-13T13:38:44;4.57;;;1.75;;
25752;SDS011;13600;50.816;4.416;2023-07-13T13:41:12;7.30;;;1.60;;
25752;SDS011;13600;50.816;4.416;2023-07-13T13:43:39;6.40;;;1.60;;
25752;SDS011;13600;50.816;4.416;2023-07-13T13:46:24;4.90;;;1.55;;
25752;SDS011;13600;50.816;4.416;2023-07-13T13:48:50;4.40;;;1.55;;
25752;SDS011;13600;50.816;4.416;2023-07-13T13:51:20;5.80;;;1.40;;
25752;SDS011;13600;50.816;4.416;2023-07-13T13:53:47;6.78;;;1.42;;
25752;SDS011;13600;50.816;4.416;2023-07-13T13:56:13;4.65;;;1.48;;
25752;SDS011;13600;50.816;4.416;2023-07-13T13:58:40;4.55;;;1.60;;
25752;SDS011;13600;50.816;4.416;2023-07-13T14:01:13;3.92;;;1.45;;
25752;SDS011;13600;50.816;4.416;2023-07-13T14:03:48;4.55;;;1.50;;
25752;SDS011;13600;50.816;4.416;2023-07-13T14:06:16;5.50;;;1.63;;
25752;SDS011;13600;50.816;4.416;2023-07-13T14:08:42;7.35;;;1.50;;
25752;SDS011;13600;50.816;4.416;2023-07-13T14:11:12;6.00;;;1.80;;
25752;SDS011;13600;50.816;4.416;2023-07-13T14:13:41;5.68;;;1.60;;
25752;SDS011;13600;50.816;4.416;2023-07-13T14:16:16;6.18;;;1.63;;
25752;SDS011;13600;50.816;4.416;2023-07-13T14:18:43;4.22;;;1.50;;
25752;SDS011;13600;50.816;4.416;2023-07-13T14:21:17;4.60;;;1.40;;
25752;SDS011;13600;50.816;4.416;2023-07-13T14:23:45;5.03;;;1.67;;
25752;SDS011;13600;50.816;4.416;2023-07-13T14:26:19;7.22;;;1.98;;
25752;SDS011;13600;50.816;4.416;2023-07-13T14:28:49;4.80;;;1.75;;
25752;SDS011;13600;50.816;4.416;2023-07-13T14:31:20;6.05;;;1.92;;
25752;SDS011;13600;50.816;4.416;2023-07-13T14:33:47;7.15;;;1.90;;
25752;SDS011;13600;50.816;4.416;2023-07-13T14:36:40;8.63;;;2.20;;
25752;SDS011;13600;50.816;4.416;2023-07-13T14:39:14;4.18;;;1.50;;
25752;SDS011;13600;50.816;4.416;2023-07-13T14:41:42;6.20;;;1.80;;
25752;SDS011;13600;50.816;4.416;2023-07-13T14:44:16;6.13;;;1.65;;
25752;SDS011;13600;50.816;4.416;2023-07-13T14:46:43;6.72;;;1.80;;
25752;SDS011;13600;50.816;4.416;2023-07-13T14:49:24;4.82;;;1.67;;
25752;SDS011;13600;50.816;4.416;2023-07-13T14:51:58;7.28;;;1.48;;
25752;SDS011;13600;50.816;4.416;2023-07-13T14:54:26;5.53;;;1.77;;
25752;SDS011;13600;50.816;4.416;2023-07-13T14:56:51;6.82;;;1.80;;
25752;SDS011;13600;50.816;4.416;2023-07-13T14:59:17;7.63;;;2.00;;
25752;SDS011;13600;50.816;4.416;2023-07-13T15:01:46;5.05;;;1.80;;
25752;SDS011;13600;50.816;4.416;2023-07-13T15:04:14;5.75;;;1.75;;
25752;SDS011;13600;50.816;4.416;2023-07-13T15:06:53;5.57;;;1.50;;
25752;SDS011;13600;50.816;4.416;2023-07-13T15:09:27;7.35;;;1.85;;
25752;SDS011;13600;50.816;4.416;2023-07-13T15:11:58;4.15;;;1.63;;
25752;SDS011;13600;50.816;4.416;2023-07-13T15:14:24;5.97;;;1.73;;
25752;SDS011;13600;50.816;4.416;2023-07-13T15:16:52;3.67;;;1.60;;
25752;SDS011;13600;50.816;4.416;2023-07-13T15:19:20;6.22;;;1.40;;
25752;SDS011;13600;50.816;4.416;2023-07-13T15:21:48;3.88;;;1.52;;
25752;SDS011;13600;50.816;4.416;2023-07-13T15:24:15;5.25;;;1.58;;
25752;SDS011;13600;50.816;4.416;2023-07-13T15:26:41;5.22;;;1.55;;
25752;SDS011;13600;50.816;4.416;2023-07-13T15:29:10;5.43;;;1.48;;
25752;SDS011;13600;50.816;4.416;2023-07-13T15:31:36;4.53;;;1.40;;
25752;SDS011;13600;50.816;4.416;2023-07-13T15:34:07;3.40;;;1.50;;
25752;SDS011;13600;50.816;4.416;2023-07-13T15:36:39;4.95;;;1.70;;
25752;SDS011;13600;50.816;4.416;2023-07-13T15:39:05;3.92;;;1.60;;
25752;SDS011;13600;50.816;4.416;2023-07-13T15:41:31;7.28;;;1.20;;
25752;SDS011;13600;50.816;4.416;2023-07-13T15:43:58;4.57;;;1.45;;
25752;SDS011;13600;50.816;4.416;2023-07-13T15:46:24;3.83;;;1.75;;
25752;SDS011;13600;50.816;4.416;2023-07-13T15:48:52;5.45;;;1.50;;